createdAt,value
2017-12-05T00:00:17.440Z,3.75
2017-12-05T00:02:44.880Z,3.89
2017-12-05T00:05:12.339Z,3.96
2017-12-05T00:07:39.833Z,3.97
2017-12-05T00:10:07.332Z,3.89
2017-12-05T00:12:34.791Z,3.88
2017-12-05T00:15:02.252Z,3.79
2017-12-05T00:17:29.745Z,3.59
2017-12-05T00:19:57.210Z,3.64
2017-12-05T00:22:24.742Z,3.55
2017-12-05T00:24:52.232Z,3.48
2017-12-05T00:27:19.700Z,3.49
2017-12-05T00:29:47.152Z,3.59
2017-12-05T00:32:15.211Z,3.54
2017-12-05T00:34:42.684Z,3.56
2017-12-05T00:37:10.139Z,3.43
2017-12-05T00:39:37.611Z,3.41
2017-12-05T00:42:05.110Z,3.38
2017-12-05T00:44:32.567Z,3.43
2017-12-05T00:47:00.045Z,3.49
2017-12-05T00:49:27.504Z,3.57
2017-12-05T00:51:54.955Z,3.50
2017-12-05T00:54:22.534Z,3.55
2017-12-05T00:56:50.162Z,3.57
2017-12-05T00:59:17.610Z,3.51
2017-12-05T01:01:45.066Z,3.66
2017-12-05T01:04:12.561Z,3.51
2017-12-05T01:06:40.022Z,3.56
2017-12-05T01:09:07.496Z,3.54
2017-12-05T01:11:34.965Z,3.44
2017-12-05T01:14:02.444Z,3.34
2017-12-05T01:16:30.431Z,3.47
2017-12-05T01:18:57.919Z,3.42
2017-12-05T01:21:25.370Z,3.37
2017-12-05T01:23:52.851Z,3.33
2017-12-05T01:26:20.317Z,3.30
2017-12-05T01:28:47.771Z,3.27
2017-12-05T01:31:15.228Z,3.23
2017-12-05T01:33:42.692Z,3.21
2017-12-05T01:36:10.182Z,3.22
2017-12-05T01:38:37.635Z,3.16
2017-12-05T01:41:05.122Z,3.30
2017-12-05T01:43:32.603Z,3.21
2017-12-05T01:46:00.059Z,3.19
2017-12-05T01:48:27.592Z,3.21
2017-12-05T01:50:55.062Z,3.32
2017-12-05T01:53:22.519Z,3.46
2017-12-05T01:55:50.008Z,3.27
2017-12-05T01:58:17.522Z,3.26
2017-12-05T02:00:50.978Z,3.22
2017-12-05T02:03:18.443Z,3.16
2017-12-05T02:05:45.916Z,3.34
2017-12-05T02:08:13.861Z,3.33
2017-12-05T02:10:41.383Z,3.28
2017-12-05T02:13:08.835Z,3.28
2017-12-05T02:15:36.312Z,3.30
2017-12-05T02:18:03.849Z,3.28
2017-12-05T02:20:32.313Z,3.36
2017-12-05T02:22:59.807Z,3.39
2017-12-05T02:25:27.272Z,3.43
2017-12-05T02:27:54.721Z,3.51
2017-12-05T02:30:22.209Z,3.38
2017-12-05T02:32:49.709Z,3.49
2017-12-05T02:35:17.191Z,3.47
2017-12-05T02:37:44.657Z,3.44
2017-12-05T02:40:12.112Z,3.46
2017-12-05T02:42:39.579Z,3.59
2017-12-05T02:45:07.104Z,3.56
2017-12-05T02:47:34.608Z,3.68
2017-12-05T02:50:02.067Z,3.75
2017-12-05T02:52:29.938Z,3.86
2017-12-05T02:54:57.451Z,3.69
2017-12-05T02:57:24.894Z,3.75
2017-12-05T02:59:52.349Z,3.75
2017-12-05T03:02:19.832Z,3.70
2017-12-05T03:04:47.291Z,3.85
2017-12-05T03:07:14.739Z,3.74
2017-12-05T03:09:42.273Z,3.82
2017-12-05T03:12:09.717Z,3.83
2017-12-05T03:14:37.180Z,3.71
2017-12-05T03:17:04.642Z,3.72
2017-12-05T03:19:32.120Z,3.63
2017-12-05T03:21:59.628Z,3.74
2017-12-05T03:24:27.084Z,3.76
2017-12-05T03:26:54.587Z,3.74
2017-12-05T03:29:22.067Z,3.76
2017-12-05T03:31:49.516Z,3.82
2017-12-05T03:34:16.992Z,3.67
2017-12-05T03:36:44.443Z,3.64
2017-12-05T03:39:11.879Z,3.68
2017-12-05T03:41:39.348Z,3.72
2017-12-05T03:44:06.810Z,3.77
2017-12-05T03:46:34.655Z,3.86
2017-12-05T03:49:02.236Z,3.86
2017-12-05T03:51:29.685Z,3.83
2017-12-05T03:53:57.136Z,3.92
2017-12-05T03:56:24.773Z,3.99
2017-12-05T03:58:52.228Z,3.92
2017-12-05T04:01:19.712Z,3.91
2017-12-05T04:03:47.200Z,3.94
2017-12-05T04:06:15.204Z,3.89
2017-12-05T04:08:42.713Z,3.89
2017-12-05T04:11:10.161Z,3.87
2017-12-05T04:13:37.644Z,3.84
2017-12-05T04:16:05.096Z,3.83
2017-12-05T04:18:32.553Z,3.85
2017-12-05T04:21:00.080Z,3.86
2017-12-05T04:23:27.533Z,3.85
2017-12-05T04:25:55.017Z,3.90
2017-12-05T04:28:22.520Z,3.95
2017-12-05T04:30:49.961Z,3.96
2017-12-05T04:33:17.510Z,4.06
2017-12-05T04:35:45.071Z,3.94
2017-12-05T04:38:12.602Z,4.01
2017-12-05T04:40:40.118Z,4.06
2017-12-05T04:43:07.592Z,4.03
2017-12-05T04:45:35.036Z,4.13
2017-12-05T04:48:02.583Z,4.18
2017-12-05T04:50:30.209Z,4.23
2017-12-05T04:52:57.668Z,4.19
2017-12-05T04:55:25.148Z,4.21
2017-12-05T04:57:52.631Z,4.18
2017-12-05T05:00:20.104Z,4.20
2017-12-05T05:02:47.571Z,4.28
2017-12-05T05:05:15.071Z,4.37
2017-12-05T05:07:42.541Z,4.29
2017-12-05T05:10:09.999Z,4.25
2017-12-05T05:12:37.520Z,4.18
2017-12-05T05:15:04.989Z,4.18
2017-12-05T05:17:32.474Z,4.26
2017-12-05T05:19:59.954Z,4.31
2017-12-05T05:22:27.416Z,4.27
2017-12-05T05:24:54.909Z,4.27
2017-12-05T05:27:22.371Z,4.30
2017-12-05T05:29:49.824Z,4.32
2017-12-05T05:32:17.318Z,4.32
2017-12-05T05:34:44.769Z,4.39
2017-12-05T05:37:12.228Z,4.36
2017-12-05T05:39:39.708Z,4.33
2017-12-05T05:42:07.147Z,4.40
2017-12-05T05:44:34.607Z,4.31
2017-12-05T05:47:02.135Z,4.30
2017-12-05T05:49:29.590Z,4.37
2017-12-05T05:51:57.072Z,4.31
2017-12-05T05:54:24.543Z,4.33
2017-12-05T05:56:52.131Z,4.40
2017-12-05T05:59:19.599Z,4.37
2017-12-05T06:01:47.053Z,4.34
2017-12-05T06:04:14.611Z,4.37
2017-12-05T06:06:42.240Z,4.39
2017-12-05T06:09:09.696Z,4.39
2017-12-05T06:11:37.198Z,4.43
2017-12-05T06:14:04.680Z,4.32
2017-12-05T06:16:32.144Z,4.32
2017-12-05T06:18:59.647Z,4.34
2017-12-05T06:21:27.109Z,4.35
2017-12-05T06:23:54.558Z,4.41
2017-12-05T06:26:22.028Z,4.43
2017-12-05T06:28:49.484Z,4.47
2017-12-05T06:31:16.937Z,4.47
2017-12-05T06:33:44.469Z,4.45
2017-12-05T06:36:11.922Z,4.47
2017-12-05T06:38:39.423Z,4.49
2017-12-05T06:41:06.992Z,4.45
2017-12-05T06:43:34.454Z,4.46
2017-12-05T06:46:01.931Z,4.45
2017-12-05T06:48:29.424Z,4.47
2017-12-05T06:50:56.907Z,4.50
2017-12-05T06:53:24.405Z,4.55
2017-12-05T06:55:51.892Z,4.50
2017-12-05T06:58:19.358Z,4.48
2017-12-05T07:00:46.888Z,4.44
2017-12-05T07:03:14.683Z,4.44
2017-12-05T07:05:42.141Z,4.43
2017-12-05T07:08:09.608Z,4.37
2017-12-05T07:10:37.074Z,4.36
2017-12-05T07:13:04.548Z,4.27
2017-12-05T07:15:32.048Z,4.30
2017-12-05T07:17:59.501Z,4.39
2017-12-05T07:20:26.962Z,4.42
2017-12-05T07:22:54.488Z,4.42
2017-12-05T07:25:21.939Z,4.46
2017-12-05T07:27:49.416Z,4.44
2017-12-05T07:30:16.880Z,4.46
2017-12-05T07:32:44.351Z,4.50
2017-12-05T07:35:11.807Z,4.49
2017-12-05T07:37:39.296Z,4.49
2017-12-05T07:40:06.760Z,4.47
2017-12-05T07:42:34.254Z,4.48
2017-12-05T07:45:01.709Z,4.42
2017-12-05T07:47:29.203Z,4.40
2017-12-05T07:49:56.706Z,4.43
2017-12-05T07:52:24.179Z,4.39
2017-12-05T07:54:51.663Z,4.43
2017-12-05T07:57:19.121Z,4.51
2017-12-05T07:59:46.652Z,4.50
2017-12-05T08:02:14.734Z,4.46
2017-12-05T08:04:42.242Z,4.47
2017-12-05T08:07:09.731Z,4.40
2017-12-05T08:09:37.204Z,4.46
2017-12-05T08:12:04.715Z,4.44
2017-12-05T08:14:32.233Z,4.43
2017-12-05T08:16:59.748Z,4.50
2017-12-05T08:19:27.265Z,4.55
2017-12-05T08:21:54.722Z,4.48
2017-12-05T08:24:22.249Z,4.54
2017-12-05T08:26:49.787Z,4.66
2017-12-05T08:29:17.252Z,4.65
2017-12-05T08:31:44.716Z,4.65
2017-12-05T08:34:12.210Z,4.74
2017-12-05T08:36:39.703Z,4.71
2017-12-05T08:39:07.243Z,4.77
2017-12-05T08:41:34.711Z,4.74
2017-12-05T08:44:02.211Z,4.78
2017-12-05T08:46:29.887Z,4.87
2017-12-05T08:48:57.346Z,4.86
2017-12-05T08:51:24.826Z,4.89
2017-12-05T08:53:52.347Z,4.94
2017-12-05T08:56:19.823Z,4.88
2017-12-05T08:58:47.303Z,4.89
2017-12-05T09:01:14.796Z,4.91
2017-12-05T09:03:42.266Z,4.96
2017-12-05T09:06:09.732Z,4.96
2017-12-05T09:08:37.281Z,4.94
2017-12-05T09:11:08.275Z,5.00
2017-12-05T09:13:35.736Z,4.88
2017-12-05T09:16:03.213Z,4.96
2017-12-05T09:18:30.698Z,4.96
2017-12-05T09:20:58.172Z,4.86
2017-12-05T09:23:25.634Z,4.91
2017-12-05T09:25:53.147Z,4.91
2017-12-05T09:28:20.602Z,4.85
2017-12-05T09:30:48.071Z,4.85
2017-12-05T09:33:15.827Z,4.83
2017-12-05T09:35:43.283Z,4.81
2017-12-05T09:38:10.771Z,4.79
2017-12-05T09:40:38.242Z,4.70
2017-12-05T09:43:05.728Z,4.78
2017-12-05T09:45:33.217Z,4.69
2017-12-05T09:48:00.702Z,4.70
2017-12-05T09:50:28.437Z,4.67
2017-12-05T09:52:55.884Z,4.72
2017-12-05T09:55:23.363Z,4.79
2017-12-05T09:57:50.865Z,4.86
2017-12-05T10:00:18.335Z,4.90
2017-12-05T10:02:45.835Z,4.94
2017-12-05T10:05:13.293Z,5.07
2017-12-05T10:07:40.748Z,5.01
2017-12-05T10:10:08.242Z,5.11
2017-12-05T10:12:35.700Z,5.04
2017-12-05T10:15:03.203Z,5.08
2017-12-05T10:17:30.680Z,5.10
2017-12-05T10:19:58.177Z,5.12
2017-12-05T10:22:25.598Z,5.19
2017-12-05T10:24:53.060Z,5.12
2017-12-05T10:27:20.549Z,5.26
2017-12-05T10:29:48.019Z,5.20
2017-12-05T10:32:15.539Z,5.16
2017-12-05T10:34:42.985Z,5.17
2017-12-05T10:37:10.494Z,5.24
2017-12-05T10:39:37.956Z,5.28
2017-12-05T10:42:05.435Z,5.19
2017-12-05T10:44:33.032Z,5.23
2017-12-05T10:47:00.558Z,5.26
2017-12-05T10:49:28.019Z,5.29
2017-12-05T10:51:55.494Z,5.38
2017-12-05T10:54:23.425Z,5.47
2017-12-05T10:56:50.888Z,5.44
2017-12-05T10:59:18.346Z,5.49
2017-12-05T11:01:45.804Z,5.54
2017-12-05T11:04:13.443Z,5.39
2017-12-05T11:06:41.302Z,5.36
2017-12-05T11:09:08.841Z,5.41
2017-12-05T11:11:36.315Z,5.49
2017-12-05T11:14:04.007Z,5.33
2017-12-05T11:16:31.494Z,5.43
2017-12-05T11:18:59.127Z,5.40
2017-12-05T11:21:26.594Z,5.38
2017-12-05T11:23:54.053Z,5.30
2017-12-05T11:26:21.529Z,5.47
2017-12-05T11:28:48.989Z,5.41
2017-12-05T11:31:16.530Z,5.44
2017-12-05T11:33:43.981Z,5.49
2017-12-05T11:36:11.461Z,5.55
2017-12-05T11:38:39.004Z,5.46
2017-12-05T11:41:06.470Z,5.54
2017-12-05T11:43:33.919Z,5.60
2017-12-05T11:46:01.405Z,5.54
2017-12-05T11:48:28.916Z,5.57
2017-12-05T11:50:56.467Z,5.54
2017-12-05T11:53:23.954Z,5.62
2017-12-05T11:55:51.412Z,5.65
2017-12-05T11:58:18.859Z,5.70
2017-12-05T12:00:46.364Z,5.62
2017-12-05T12:03:14.033Z,5.56
2017-12-05T12:05:41.510Z,5.65
2017-12-05T12:08:09.030Z,5.69
2017-12-05T12:10:36.499Z,5.71
2017-12-05T12:13:03.979Z,5.85
2017-12-05T12:15:31.446Z,5.65
2017-12-05T12:17:58.887Z,5.59
2017-12-05T12:20:26.336Z,5.70
2017-12-05T12:22:53.860Z,5.59
2017-12-05T12:25:21.353Z,5.65
2017-12-05T12:27:48.808Z,5.72
2017-12-05T12:30:16.291Z,5.59
2017-12-05T12:32:43.763Z,5.62
2017-12-05T12:35:11.217Z,5.60
2017-12-05T12:37:38.692Z,5.51
2017-12-05T12:40:06.173Z,5.59
2017-12-05T12:42:33.620Z,5.56
2017-12-05T12:45:01.141Z,5.58
2017-12-05T12:47:28.595Z,5.64
2017-12-05T12:49:56.140Z,5.77
2017-12-05T12:52:23.597Z,5.70
2017-12-05T12:54:51.037Z,5.70
2017-12-05T12:57:18.538Z,5.70
2017-12-05T12:59:45.976Z,5.78
2017-12-05T13:02:13.483Z,5.82
2017-12-05T13:04:40.968Z,5.93
2017-12-05T13:07:08.436Z,5.94
2017-12-05T13:09:35.932Z,5.94
2017-12-05T13:12:03.405Z,6.01
2017-12-05T13:14:31.445Z,5.91
2017-12-05T13:16:58.904Z,5.91
2017-12-05T13:19:26.349Z,5.93
2017-12-05T13:21:53.801Z,6.01
2017-12-05T13:24:21.283Z,5.87
2017-12-05T13:26:48.858Z,5.87
2017-12-05T13:29:16.384Z,5.87
2017-12-05T13:31:43.844Z,5.95
2017-12-05T13:34:11.288Z,6.01
2017-12-05T13:36:38.741Z,5.96
2017-12-05T13:39:06.194Z,5.97
2017-12-05T13:41:33.672Z,5.96
2017-12-05T13:44:01.124Z,5.92
2017-12-05T13:46:28.936Z,5.92
2017-12-05T13:48:56.389Z,5.87
2017-12-05T13:51:23.841Z,5.86
2017-12-05T13:53:51.334Z,5.91
2017-12-05T13:56:18.782Z,5.91
2017-12-05T13:58:46.260Z,5.92
2017-12-05T14:01:13.824Z,5.87
2017-12-05T14:03:41.288Z,6.04
2017-12-05T14:06:08.761Z,5.97
2017-12-05T14:08:36.223Z,5.98
2017-12-05T14:11:03.705Z,5.98
2017-12-05T14:13:31.218Z,6.02
2017-12-05T14:15:58.689Z,5.99
2017-12-05T14:18:26.359Z,5.99
2017-12-05T14:20:53.823Z,6.12
2017-12-05T14:23:21.279Z,6.05
2017-12-05T14:25:48.763Z,5.99
2017-12-05T14:28:16.240Z,6.01
2017-12-05T14:30:43.989Z,5.93
2017-12-05T14:33:11.444Z,5.88
2017-12-05T14:35:38.928Z,5.95
2017-12-05T14:38:06.408Z,5.86
2017-12-05T14:40:34.044Z,5.93
2017-12-05T14:43:01.514Z,5.87
2017-12-05T14:45:28.967Z,5.79
2017-12-05T14:47:56.437Z,5.83
2017-12-05T14:52:56.787Z,5.75
2017-12-05T14:55:24.336Z,5.75
2017-12-05T14:57:51.803Z,5.71
2017-12-05T15:00:19.368Z,5.71
2017-12-05T15:02:46.905Z,5.69
2017-12-05T15:05:14.394Z,5.69
2017-12-05T15:07:41.887Z,5.69
2017-12-05T15:10:09.344Z,5.68
2017-12-05T15:12:36.807Z,5.71
2017-12-05T15:15:04.300Z,5.72
2017-12-05T15:17:31.749Z,5.74
2017-12-05T15:19:59.252Z,5.69
2017-12-05T15:22:26.718Z,5.68
2017-12-05T15:24:54.176Z,5.67
2017-12-05T15:27:21.743Z,5.61
2017-12-05T15:29:49.265Z,5.59
2017-12-05T15:32:17.646Z,5.59
2017-12-05T15:34:45.130Z,5.54
2017-12-05T15:37:12.779Z,5.50
2017-12-05T15:39:40.258Z,5.53
2017-12-05T15:42:07.739Z,5.58
2017-12-05T15:44:35.192Z,5.56
2017-12-05T15:47:02.672Z,5.55
2017-12-05T15:49:30.235Z,5.57
2017-12-05T15:51:57.716Z,5.55
2017-12-05T15:54:25.771Z,5.59
2017-12-05T15:56:53.277Z,5.53
2017-12-05T15:59:20.755Z,5.49
2017-12-05T16:01:48.215Z,5.50
2017-12-05T16:04:15.779Z,5.50
2017-12-05T16:06:43.556Z,5.54
2017-12-05T16:09:11.052Z,5.56
2017-12-05T16:11:38.576Z,5.55
2017-12-05T16:14:06.063Z,5.59
2017-12-05T16:16:33.669Z,5.61
2017-12-05T16:19:01.158Z,5.62
2017-12-05T16:21:28.633Z,5.68
2017-12-05T16:23:56.104Z,5.68
2017-12-05T16:26:23.588Z,5.79
2017-12-05T16:28:51.048Z,5.71
2017-12-05T16:31:18.525Z,5.70
2017-12-05T16:33:46.013Z,5.73
2017-12-05T16:36:13.478Z,5.69
2017-12-05T16:38:40.986Z,5.78
2017-12-05T16:41:08.460Z,5.74
2017-12-05T16:43:35.981Z,5.69
2017-12-05T16:46:03.465Z,5.74
2017-12-05T16:48:30.976Z,5.71
2017-12-05T16:50:58.456Z,5.73
2017-12-05T16:53:25.927Z,5.70
2017-12-05T16:55:53.407Z,5.70
2017-12-05T16:58:20.877Z,5.71
2017-12-05T17:00:48.352Z,5.70
2017-12-05T17:03:15.876Z,5.73
2017-12-05T17:05:43.386Z,5.78
2017-12-05T17:08:10.908Z,5.80
2017-12-05T17:10:38.378Z,5.83
2017-12-05T17:13:05.872Z,5.84
2017-12-05T17:15:33.332Z,5.83
2017-12-05T17:18:00.819Z,5.85
2017-12-05T17:20:28.307Z,5.89
2017-12-05T17:22:55.806Z,5.87
2017-12-05T17:25:23.360Z,5.89
2017-12-05T17:27:50.848Z,5.89
2017-12-05T17:30:18.378Z,5.87
2017-12-05T17:32:45.843Z,5.94
2017-12-05T17:35:13.330Z,5.94
2017-12-05T17:37:40.837Z,5.98
2017-12-05T17:40:08.335Z,5.93
2017-12-05T17:42:35.792Z,5.93
2017-12-05T17:45:03.283Z,5.90
2017-12-05T17:47:30.777Z,6.02
2017-12-05T17:49:58.239Z,5.93
2017-12-05T17:52:25.707Z,5.96
2017-12-05T17:54:53.200Z,6.02
2017-12-05T17:57:20.679Z,5.98
2017-12-05T17:59:48.243Z,5.92
2017-12-05T18:02:16.041Z,5.96
2017-12-05T18:04:43.501Z,6.02
2017-12-05T18:07:11.009Z,6.02
2017-12-05T18:09:38.489Z,5.96
2017-12-05T18:12:06.029Z,5.96
2017-12-05T18:14:33.532Z,5.94
2017-12-05T18:17:01.017Z,5.96
2017-12-05T18:19:29.117Z,5.97
2017-12-05T18:21:56.642Z,6.03
2017-12-05T18:24:24.379Z,5.99
2017-12-05T18:26:51.885Z,6.01
2017-12-05T18:29:19.387Z,6.00
2017-12-05T18:31:46.910Z,5.96
2017-12-05T18:34:14.488Z,5.96
2017-12-05T18:36:42.297Z,5.91
2017-12-05T18:39:09.871Z,5.94
2017-12-05T18:41:37.365Z,5.96
2017-12-05T18:44:04.849Z,5.98
2017-12-05T18:46:32.364Z,5.95
2017-12-05T18:48:59.835Z,6.05
2017-12-05T18:51:27.360Z,6.03
2017-12-05T18:53:54.827Z,5.94
2017-12-05T18:56:22.361Z,6.01
2017-12-05T18:58:49.853Z,5.97
2017-12-05T19:01:17.359Z,5.98
2017-12-05T19:03:44.860Z,6.07
2017-12-05T19:06:12.644Z,6.08
2017-12-05T19:08:40.154Z,6.05
2017-12-05T19:11:07.682Z,6.02
2017-12-05T19:13:35.107Z,6.07
2017-12-05T19:16:02.624Z,6.05
2017-12-05T19:18:30.143Z,6.04
2017-12-05T19:20:58.496Z,6.01
2017-12-05T19:23:25.960Z,6.12
2017-12-05T19:25:53.448Z,6.05
2017-12-05T19:28:20.985Z,6.06
2017-12-05T19:30:49.027Z,6.03
2017-12-05T19:33:17.636Z,6.06
2017-12-05T19:35:45.148Z,6.04
2017-12-05T19:38:12.701Z,6.05
2017-12-05T19:40:40.188Z,6.03
2017-12-05T19:43:07.657Z,6.05
2017-12-05T19:45:35.155Z,6.05
2017-12-05T19:48:02.648Z,6.10
2017-12-05T19:50:30.416Z,6.12
2017-12-05T19:52:58.012Z,6.07
2017-12-05T19:55:25.495Z,6.08
2017-12-05T19:57:52.974Z,6.17
2017-12-05T20:00:20.468Z,6.18
2017-12-05T20:02:49.431Z,6.16
2017-12-05T20:05:16.895Z,6.20
2017-12-05T20:07:44.420Z,6.17
2017-12-05T20:10:11.897Z,6.16
2017-12-05T20:12:39.390Z,6.15
2017-12-05T20:15:06.862Z,6.16
2017-12-05T20:17:34.327Z,6.16
2017-12-05T20:20:01.869Z,6.14
2017-12-05T20:22:29.676Z,6.17
2017-12-05T20:24:57.203Z,6.19
2017-12-05T20:27:24.668Z,6.17
2017-12-05T20:29:52.191Z,6.18
2017-12-05T20:32:19.693Z,6.18
2017-12-05T20:34:48.197Z,6.21
2017-12-05T20:37:15.669Z,6.18
2017-12-05T20:39:43.144Z,6.16
2017-12-05T20:42:10.679Z,6.10
2017-12-05T20:44:38.201Z,6.15
2017-12-05T20:47:05.748Z,6.12
2017-12-05T20:49:33.283Z,6.07
2017-12-05T20:52:00.773Z,6.08
2017-12-05T20:54:28.258Z,6.06
2017-12-05T20:56:55.719Z,6.07
2017-12-05T20:59:23.664Z,6.03
2017-12-05T21:01:51.125Z,6.04
2017-12-05T21:04:18.588Z,5.99
2017-12-05T21:06:46.130Z,6.04
2017-12-05T21:09:14.261Z,6.09
2017-12-05T21:11:41.773Z,6.04
2017-12-05T21:14:09.299Z,6.01
2017-12-05T21:16:36.766Z,6.05
2017-12-05T21:19:04.282Z,6.01
2017-12-05T21:21:31.911Z,6.02
2017-12-05T21:23:59.372Z,6.04
2017-12-05T21:26:26.879Z,6.08
2017-12-05T21:28:54.366Z,5.97
2017-12-05T21:31:21.849Z,5.96
2017-12-05T21:33:49.345Z,6.02
2017-12-05T21:36:16.808Z,6.04
2017-12-05T21:38:44.277Z,5.98
2017-12-05T21:41:11.776Z,6.02
2017-12-05T21:43:39.265Z,6.01
2017-12-05T21:46:06.726Z,5.97
2017-12-05T21:48:34.249Z,5.94
2017-12-05T21:51:01.744Z,6.01
2017-12-05T21:53:29.293Z,6.01
2017-12-05T21:55:57.649Z,6.00
2017-12-05T21:58:25.154Z,6.04
2017-12-05T22:00:52.678Z,6.01
2017-12-05T22:03:20.180Z,6.07
2017-12-05T22:05:47.657Z,6.03
2017-12-05T22:08:16.138Z,6.01
2017-12-05T22:10:43.597Z,6.14
2017-12-05T22:13:11.052Z,6.08
2017-12-05T22:15:38.550Z,6.09
2017-12-05T22:18:06.042Z,6.11
2017-12-05T22:20:33.605Z,6.11
2017-12-05T22:23:01.074Z,6.22
2017-12-05T22:25:28.524Z,6.09
2017-12-05T22:27:56.113Z,6.06
2017-12-05T22:30:24.004Z,6.10
2017-12-05T22:32:51.544Z,6.07
2017-12-05T22:35:18.992Z,6.02
2017-12-05T22:37:46.453Z,6.06
2017-12-05T22:40:14.091Z,6.04
2017-12-05T22:42:41.896Z,6.03
2017-12-05T22:45:09.346Z,6.00
2017-12-05T22:47:36.898Z,6.00
2017-12-05T22:50:04.353Z,6.10
2017-12-05T22:52:31.918Z,5.95
2017-12-05T22:54:59.404Z,5.94
2017-12-05T22:57:26.868Z,5.99
2017-12-05T22:59:54.338Z,6.03
2017-12-05T23:02:21.808Z,5.91
2017-12-05T23:04:49.271Z,6.07
2017-12-05T23:07:16.743Z,6.08
2017-12-05T23:09:44.232Z,6.06
2017-12-05T23:12:11.696Z,5.95
2017-12-05T23:14:39.228Z,5.98
2017-12-05T23:17:06.745Z,5.91
2017-12-05T23:19:34.310Z,6.01
2017-12-05T23:22:01.837Z,5.90
2017-12-05T23:24:29.351Z,6.07
2017-12-05T23:26:56.804Z,5.97
2017-12-05T23:29:24.284Z,6.05
2017-12-05T23:31:51.776Z,6.00
2017-12-05T23:34:19.791Z,5.98
2017-12-05T23:36:47.300Z,5.89
2017-12-05T23:39:14.976Z,5.91
2017-12-05T23:41:42.461Z,5.94
2017-12-05T23:44:10.533Z,5.97
2017-12-05T23:46:38.029Z,5.95
2017-12-05T23:49:05.508Z,5.96
2017-12-05T23:51:32.999Z,5.84
2017-12-05T23:54:00.568Z,5.87
2017-12-05T23:56:28.246Z,5.83
2017-12-05T23:58:55.756Z,5.87
